Airfield :
LOGIN :

Register | Disclaimer

   EN    FR    IT 

 










Legend :    VFR   Marginal VFR   IFR   Intensive IFR   Very Intensive IFR
Visi :
Ceiling :
>= 8 km
>= 3000ft
5 to 8 km
1000 to 3000 ft
1500m to 5 km
500 to 1000 ft
800 to 1500m
200 to 500 ft
< 800m
< 200 ft
Symbols :   Thunderstorms  Fog  Heavy snow  Heavy precipitations  Wind > 20 kt
SIGMETs :     Misc.  Thunderstorms  Icing  Turbulence  Mountain Waves  Volcanic Ashes







- Airport Elevation : 308 ft
- IATA code : MHG


EDFM - Mannheim-City

CURRENT METAR :
  • 180650Z 15005KT 2500 SN BR BKN002 00/00 Q1021

EXPIRED METARs :
  • 180620Z 16005KT 130V190 1800 SN BR OVC002 00/00 Q1021
  • 180550Z 15004KT 2100 SN BR OVC002 00/00 Q1021
  • 180520Z 16004KT 120V200 2500 SN BR OVC002 00/00 Q1021
  • 180450Z 17005KT 130V200 2000 SN BR OVC002 00/00 Q1021

TAF TAF EDFM
Valid from the 18 at 06:00 until the 18 at 15:00 UTC


180552Z 1806/1815 16008KT 6000 SCT002 BKN008
TEMPO 1806/1809 2000 SN BKN002
TEMPO 1809/1812 3500 RASN BKN004
BECMG 1812/1815 SCT005 BKN012
No reported NOTAMs for that airfield.
2 SIGMETs reported for the Langen FIR (EDGG) :
 
Severe icing
EDGG SIGMET 2 VALID 180704/180900 EDZF
EDGG LANGEN FIR SEV ICE FCST S OF N5025 AND W OF E00820 1000FT/FL100 STNR WKN=
Severe icing
EDGG SIGMET 1 VALID 180300/180700 EDZF
EDGG LANGEN FIR SEV ICE FCST WI N5128 E00539 - N5115 E00954 - N4909 E00859 - N4714 E00744 - N4903 E00647 - N5128 E00539 1000FT/FL130 MOV SE NC=



MET'MAP, your aeronautical weather chart ! - Copyright ORBIFLY December 2007 - Disclaimer

ORBIFLY MET'MAP TEAM :

Programming & Development : Alexandra Zaïnal
Concept & Development : Baudouin d'Aumeries
Co-Development & Prog : Marc-Olivier Méhu
Technical & hardware support : Manuel Goepfert

Contact : metmap@orbifly.com




SOURCES & CREDITS :

   NOAA